sensor_id;sensor_type;location;lat;lon;timestamp;P1;durP1;ratioP1;P2;durP2;ratioP2
4049;SDS011;2039;50.894;6.888;2022-11-20T00:02:19;83.33;;;15.80;;
4049;SDS011;2039;50.894;6.888;2022-11-20T00:04:48;80.97;;;14.93;;
4049;SDS011;2039;50.894;6.888;2022-11-20T00:07:14;80.97;;;14.13;;
4049;SDS011;2039;50.894;6.888;2022-11-20T00:09:39;87.10;;;15.40;;
4049;SDS011;2039;50.894;6.888;2022-11-20T00:12:05;82.20;;;15.23;;
4049;SDS011;2039;50.894;6.888;2022-11-20T00:14:31;82.40;;;15.23;;
4049;SDS011;2039;50.894;6.888;2022-11-20T00:16:56;83.67;;;17.00;;
4049;SDS011;2039;50.894;6.888;2022-11-20T00:19:22;85.10;;;17.10;;
4049;SDS011;2039;50.894;6.888;2022-11-20T00:21:47;87.30;;;18.60;;
4049;SDS011;2039;50.894;6.888;2022-11-20T00:24:16;81.18;;;15.50;;
4049;SDS011;2039;50.894;6.888;2022-11-20T00:26:42;83.70;;;15.70;;
4049;SDS011;2039;50.894;6.888;2022-11-20T00:29:08;88.87;;;18.53;;
4049;SDS011;2039;50.894;6.888;2022-11-20T00:31:35;84.38;;;17.40;;
4049;SDS011;2039;50.894;6.888;2022-11-20T00:34:00;87.20;;;17.50;;
4049;SDS011;2039;50.894;6.888;2022-11-20T00:36:27;84.10;;;16.27;;
4049;SDS011;2039;50.894;6.888;2022-11-20T00:38:54;85.43;;;19.40;;
4049;SDS011;2039;50.894;6.888;2022-11-20T00:41:21;84.00;;;15.73;;
4049;SDS011;2039;50.894;6.888;2022-11-20T00:43:47;88.38;;;17.40;;
4049;SDS011;2039;50.894;6.888;2022-11-20T00:46:14;85.57;;;17.25;;
4049;SDS011;2039;50.894;6.888;2022-11-20T00:48:41;83.28;;;16.65;;
4049;SDS011;2039;50.894;6.888;2022-11-20T00:51:08;83.50;;;18.30;;
4049;SDS011;2039;50.894;6.888;2022-11-20T00:53:35;100.15;;;17.33;;
4049;SDS011;2039;50.894;6.888;2022-11-20T00:56:04;80.20;;;15.97;;
4049;SDS011;2039;50.894;6.888;2022-11-20T00:58:35;83.40;;;15.25;;
4049;SDS011;2039;50.894;6.888;2022-11-20T01:01:04;85.70;;;17.63;;
4049;SDS011;2039;50.894;6.888;2022-11-20T01:03:35;86.05;;;15.95;;
4049;SDS011;2039;50.894;6.888;2022-11-20T01:06:06;86.38;;;15.98;;
4049;SDS011;2039;50.894;6.888;2022-11-20T01:08:37;85.38;;;15.30;;
4049;SDS011;2039;50.894;6.888;2022-11-20T01:11:06;81.07;;;15.10;;
4049;SDS011;2039;50.894;6.888;2022-11-20T01:13:33;82.70;;;15.60;;
4049;SDS011;2039;50.894;6.888;2022-11-20T01:18:39;81.05;;;14.95;;
4049;SDS011;2039;50.894;6.888;2022-11-20T01:21:08;84.88;;;15.85;;
4049;SDS011;2039;50.894;6.888;2022-11-20T01:23:36;84.25;;;15.50;;
4049;SDS011;2039;50.894;6.888;2022-11-20T01:26:22;81.13;;;15.18;;
4049;SDS011;2039;50.894;6.888;2022-11-20T01:28:50;81.57;;;15.63;;
4049;SDS011;2039;50.894;6.888;2022-11-20T01:31:17;79.93;;;14.95;;
4049;SDS011;2039;50.894;6.888;2022-11-20T01:33:49;82.53;;;14.07;;
4049;SDS011;2039;50.894;6.888;2022-11-20T01:36:17;82.88;;;16.58;;
4049;SDS011;2039;50.894;6.888;2022-11-20T01:38:44;82.60;;;15.73;;
4049;SDS011;2039;50.894;6.888;2022-11-20T01:41:11;83.32;;;16.55;;
4049;SDS011;2039;50.894;6.888;2022-11-20T01:43:56;83.60;;;15.63;;
4049;SDS011;2039;50.894;6.888;2022-11-20T01:46:22;83.70;;;15.57;;
4049;SDS011;2039;50.894;6.888;2022-11-20T01:48:58;83.77;;;14.67;;
4049;SDS011;2039;50.894;6.888;2022-11-20T01:51:42;83.38;;;16.17;;
4049;SDS011;2039;50.894;6.888;2022-11-20T01:54:12;82.25;;;14.95;;
4049;SDS011;2039;50.894;6.888;2022-11-20T01:56:42;86.22;;;16.63;;
4049;SDS011;2039;50.894;6.888;2022-11-20T01:59:10;83.35;;;16.52;;
4049;SDS011;2039;50.894;6.888;2022-11-20T02:01:40;82.00;;;14.85;;
4049;SDS011;2039;50.894;6.888;2022-11-20T02:04:06;85.80;;;16.63;;
4049;SDS011;2039;50.894;6.888;2022-11-20T02:06:35;84.65;;;16.98;;
4049;SDS011;2039;50.894;6.888;2022-11-20T02:09:05;81.70;;;15.23;;
4049;SDS011;2039;50.894;6.888;2022-11-20T02:11:30;81.33;;;15.30;;
4049;SDS011;2039;50.894;6.888;2022-11-20T02:13:56;82.83;;;16.03;;
4049;SDS011;2039;50.894;6.888;2022-11-20T02:16:24;80.80;;;15.95;;
4049;SDS011;2039;50.894;6.888;2022-11-20T02:18:53;86.28;;;16.90;;
4049;SDS011;2039;50.894;6.888;2022-11-20T02:21:23;83.25;;;15.30;;
4049;SDS011;2039;50.894;6.888;2022-11-20T02:24:06;81.13;;;14.50;;
4049;SDS011;2039;50.894;6.888;2022-11-20T02:29:35;82.43;;;15.43;;
4049;SDS011;2039;50.894;6.888;2022-11-20T02:32:04;83.30;;;15.95;;
4049;SDS011;2039;50.894;6.888;2022-11-20T02:34:30;85.10;;;15.30;;
4049;SDS011;2039;50.894;6.888;2022-11-20T02:36:56;82.65;;;15.75;;
4049;SDS011;2039;50.894;6.888;2022-11-20T02:39:24;82.30;;;14.85;;
4049;SDS011;2039;50.894;6.888;2022-11-20T02:41:55;82.05;;;16.13;;
4049;SDS011;2039;50.894;6.888;2022-11-20T02:44:22;86.97;;;16.40;;
4049;SDS011;2039;50.894;6.888;2022-11-20T02:46:47;83.50;;;15.00;;
4049;SDS011;2039;50.894;6.888;2022-11-20T02:49:13;84.17;;;16.20;;
4049;SDS011;2039;50.894;6.888;2022-11-20T02:51:39;87.37;;;16.83;;
4049;SDS011;2039;50.894;6.888;2022-11-20T02:54:04;83.60;;;16.00;;
4049;SDS011;2039;50.894;6.888;2022-11-20T02:56:30;82.87;;;15.40;;
4049;SDS011;2039;50.894;6.888;2022-11-20T02:58:56;84.00;;;15.10;;
4049;SDS011;2039;50.894;6.888;2022-11-20T03:01:22;81.87;;;15.80;;
4049;SDS011;2039;50.894;6.888;2022-11-20T03:03:47;81.60;;;15.17;;
4049;SDS011;2039;50.894;6.888;2022-11-20T03:06:14;83.23;;;14.50;;
4049;SDS011;2039;50.894;6.888;2022-11-20T03:08:41;81.43;;;14.70;;
4049;SDS011;2039;50.894;6.888;2022-11-20T03:11:07;84.10;;;17.20;;
4049;SDS011;2039;50.894;6.888;2022-11-20T03:13:33;82.65;;;15.13;;
4049;SDS011;2039;50.894;6.888;2022-11-20T03:16:04;83.47;;;15.48;;
4049;SDS011;2039;50.894;6.888;2022-11-20T03:18:43;82.82;;;16.05;;
4049;SDS011;2039;50.894;6.888;2022-11-20T03:21:11;81.13;;;14.82;;
4049;SDS011;2039;50.894;6.888;2022-11-20T03:23:38;84.60;;;15.55;;
4049;SDS011;2039;50.894;6.888;2022-11-20T03:26:07;84.68;;;15.35;;
4049;SDS011;2039;50.894;6.888;2022-11-20T03:28:34;80.93;;;14.45;;
4049;SDS011;2039;50.894;6.888;2022-11-20T03:31:10;84.33;;;15.00;;
4049;SDS011;2039;50.894;6.888;2022-11-20T03:33:38;81.97;;;14.75;;
4049;SDS011;2039;50.894;6.888;2022-11-20T03:36:05;82.82;;;16.75;;
4049;SDS011;2039;50.894;6.888;2022-11-20T03:38:33;81.03;;;15.05;;
4049;SDS011;2039;50.894;6.888;2022-11-20T03:41:02;84.13;;;16.20;;
4049;SDS011;2039;50.894;6.888;2022-11-20T03:43:33;82.03;;;15.23;;
4049;SDS011;2039;50.894;6.888;2022-11-20T03:45:59;81.38;;;14.70;;
4049;SDS011;2039;50.894;6.888;2022-11-20T03:48:25;82.73;;;16.30;;
4049;SDS011;2039;50.894;6.888;2022-11-20T03:50:52;84.72;;;16.50;;
4049;SDS011;2039;50.894;6.888;2022-11-20T03:53:19;83.75;;;16.85;;
4049;SDS011;2039;50.894;6.888;2022-11-20T03:55:45;82.95;;;15.57;;
4049;SDS011;2039;50.894;6.888;2022-11-20T03:58:15;83.25;;;17.10;;
4049;SDS011;2039;50.894;6.888;2022-11-20T04:00:41;83.97;;;16.33;;
4049;SDS011;2039;50.894;6.888;2022-11-20T04:03:06;83.13;;;16.10;;
4049;SDS011;2039;50.894;6.888;2022-11-20T04:05:33;83.80;;;16.63;;
4049;SDS011;2039;50.894;6.888;2022-11-20T04:08:00;87.22;;;17.77;;
4049;SDS011;2039;50.894;6.888;2022-11-20T04:10:28;86.20;;;17.30;;
4049;SDS011;2039;50.894;6.888;2022-11-20T04:12:57;87.30;;;19.13;;
4049;SDS011;2039;50.894;6.888;2022-11-20T04:15:23;90.18;;;18.10;;
4049;SDS011;2039;50.894;6.888;2022-11-20T04:17:48;91.00;;;20.10;;
4049;SDS011;2039;50.894;6.888;2022-11-20T04:20:14;87.83;;;17.33;;
4049;SDS011;2039;50.894;6.888;2022-11-20T04:22:40;91.00;;;19.00;;
4049;SDS011;2039;50.894;6.888;2022-11-20T04:25:05;92.23;;;18.53;;
4049;SDS011;2039;50.894;6.888;2022-11-20T04:27:31;88.07;;;18.60;;
4049;SDS011;2039;50.894;6.888;2022-11-20T04:29:57;91.40;;;19.40;;
4049;SDS011;2039;50.894;6.888;2022-11-20T04:32:23;91.67;;;20.73;;
4049;SDS011;2039;50.894;6.888;2022-11-20T04:34:48;90.67;;;18.13;;
4049;SDS011;2039;50.894;6.888;2022-11-20T04:37:17;92.80;;;19.37;;
4049;SDS011;2039;50.894;6.888;2022-11-20T04:39:43;90.30;;;18.17;;
4049;SDS011;2039;50.894;6.888;2022-11-20T04:42:09;90.27;;;18.80;;
4049;SDS011;2039;50.894;6.888;2022-11-20T04:44:56;86.47;;;15.20;;
4049;SDS011;2039;50.894;6.888;2022-11-20T04:47:22;88.88;;;18.83;;
4049;SDS011;2039;50.894;6.888;2022-11-20T04:49:48;89.28;;;18.45;;
4049;SDS011;2039;50.894;6.888;2022-11-20T04:52:14;89.10;;;18.17;;
4049;SDS011;2039;50.894;6.888;2022-11-20T04:54:40;90.97;;;19.00;;
4049;SDS011;2039;50.894;6.888;2022-11-20T04:57:05;88.53;;;18.27;;
4049;SDS011;2039;50.894;6.888;2022-11-20T04:59:31;87.97;;;18.20;;
4049;SDS011;2039;50.894;6.888;2022-11-20T05:01:57;90.87;;;19.63;;
4049;SDS011;2039;50.894;6.888;2022-11-20T05:04:22;89.73;;;20.50;;
4049;SDS011;2039;50.894;6.888;2022-11-20T05:06:49;88.77;;;18.70;;
4049;SDS011;2039;50.894;6.888;2022-11-20T05:09:15;91.47;;;19.42;;
4049;SDS011;2039;50.894;6.888;2022-11-20T05:11:40;87.13;;;18.60;;
4049;SDS011;2039;50.894;6.888;2022-11-20T05:14:06;89.07;;;18.60;;
4049;SDS011;2039;50.894;6.888;2022-11-20T05:16:33;89.87;;;18.13;;
4049;SDS011;2039;50.894;6.888;2022-11-20T05:19:00;89.47;;;19.75;;
4049;SDS011;2039;50.894;6.888;2022-11-20T05:21:27;90.57;;;18.95;;
4049;SDS011;2039;50.894;6.888;2022-11-20T05:23:54;86.78;;;17.77;;
4049;SDS011;2039;50.894;6.888;2022-11-20T05:26:21;87.90;;;18.10;;
4049;SDS011;2039;50.894;6.888;2022-11-20T05:28:47;87.53;;;17.63;;
4049;SDS011;2039;50.894;6.888;2022-11-20T05:31:14;90.38;;;18.08;;
4049;SDS011;2039;50.894;6.888;2022-11-20T05:33:44;89.75;;;19.10;;
4049;SDS011;2039;50.894;6.888;2022-11-20T05:36:11;92.15;;;18.10;;
4049;SDS011;2039;50.894;6.888;2022-11-20T05:38:37;89.32;;;19.10;;
4049;SDS011;2039;50.894;6.888;2022-11-20T05:41:06;89.30;;;17.98;;
4049;SDS011;2039;50.894;6.888;2022-11-20T05:43:36;96.10;;;19.85;;
4049;SDS011;2039;50.894;6.888;2022-11-20T05:46:04;90.32;;;17.63;;
4049;SDS011;2039;50.894;6.888;2022-11-20T05:48:31;87.80;;;18.77;;
4049;SDS011;2039;50.894;6.888;2022-11-20T05:50:58;91.22;;;18.67;;
4049;SDS011;2039;50.894;6.888;2022-11-20T05:53:25;87.32;;;17.33;;
4049;SDS011;2039;50.894;6.888;2022-11-20T05:56:05;89.53;;;17.87;;
4049;SDS011;2039;50.894;6.888;2022-11-20T05:58:33;89.00;;;17.10;;
4049;SDS011;2039;50.894;6.888;2022-11-20T06:03:39;85.97;;;15.90;;
4049;SDS011;2039;50.894;6.888;2022-11-20T06:06:07;86.72;;;16.38;;
4049;SDS011;2039;50.894;6.888;2022-11-20T06:08:34;86.45;;;16.83;;
4049;SDS011;2039;50.894;6.888;2022-11-20T06:11:06;86.05;;;16.77;;
4049;SDS011;2039;50.894;6.888;2022-11-20T06:13:34;88.25;;;17.25;;
4049;SDS011;2039;50.894;6.888;2022-11-20T06:16:00;86.70;;;17.50;;
4049;SDS011;2039;50.894;6.888;2022-11-20T06:18:26;86.47;;;16.48;;
4049;SDS011;2039;50.894;6.888;2022-11-20T06:21:03;85.03;;;17.35;;
4049;SDS011;2039;50.894;6.888;2022-11-20T06:23:31;85.25;;;16.50;;
4049;SDS011;2039;50.894;6.888;2022-11-20T06:26:00;96.97;;;18.30;;
4049;SDS011;2039;50.894;6.888;2022-11-20T06:28:30;86.47;;;18.40;;
4049;SDS011;2039;50.894;6.888;2022-11-20T06:30:56;85.55;;;16.35;;
4049;SDS011;2039;50.894;6.888;2022-11-20T06:33:22;87.93;;;17.90;;
4049;SDS011;2039;50.894;6.888;2022-11-20T06:35:48;88.73;;;16.90;;
4049;SDS011;2039;50.894;6.888;2022-11-20T06:38:13;87.40;;;17.17;;
4049;SDS011;2039;50.894;6.888;2022-11-20T06:40:39;93.60;;;17.37;;
4049;SDS011;2039;50.894;6.888;2022-11-20T06:43:06;89.60;;;18.48;;
4049;SDS011;2039;50.894;6.888;2022-11-20T06:45:32;82.90;;;15.37;;
4049;SDS011;2039;50.894;6.888;2022-11-20T06:47:57;88.67;;;17.63;;
4049;SDS011;2039;50.894;6.888;2022-11-20T06:50:23;86.50;;;16.87;;
4049;SDS011;2039;50.894;6.888;2022-11-20T06:52:49;91.10;;;19.70;;
4049;SDS011;2039;50.894;6.888;2022-11-20T06:55:14;88.97;;;18.03;;
4049;SDS011;2039;50.894;6.888;2022-11-20T06:57:40;87.87;;;17.13;;
4049;SDS011;2039;50.894;6.888;2022-11-20T07:00:06;91.50;;;20.60;;
4049;SDS011;2039;50.894;6.888;2022-11-20T07:02:32;88.07;;;17.70;;
4049;SDS011;2039;50.894;6.888;2022-11-20T07:04:58;87.63;;;18.67;;
4049;SDS011;2039;50.894;6.888;2022-11-20T07:07:23;86.43;;;17.27;;
4049;SDS011;2039;50.894;6.888;2022-11-20T07:09:49;91.30;;;18.73;;
4049;SDS011;2039;50.894;6.888;2022-11-20T07:12:15;90.20;;;19.63;;
4049;SDS011;2039;50.894;6.888;2022-11-20T07:14:41;86.60;;;18.77;;
4049;SDS011;2039;50.894;6.888;2022-11-20T07:17:06;93.23;;;17.90;;
4049;SDS011;2039;50.894;6.888;2022-11-20T07:19:32;89.20;;;17.63;;
4049;SDS011;2039;50.894;6.888;2022-11-20T07:21:58;87.57;;;19.83;;
4049;SDS011;2039;50.894;6.888;2022-11-20T07:24:23;86.77;;;16.17;;
4049;SDS011;2039;50.894;6.888;2022-11-20T07:26:49;92.67;;;21.50;;
4049;SDS011;2039;50.894;6.888;2022-11-20T07:29:15;88.23;;;18.90;;
4049;SDS011;2039;50.894;6.888;2022-11-20T07:31:41;87.45;;;19.08;;
4049;SDS011;2039;50.894;6.888;2022-11-20T07:34:07;88.00;;;17.95;;
4049;SDS011;2039;50.894;6.888;2022-11-20T07:36:33;92.07;;;18.63;;
4049;SDS011;2039;50.894;6.888;2022-11-20T07:38:59;89.53;;;18.73;;
4049;SDS011;2039;50.894;6.888;2022-11-20T07:41:25;87.50;;;19.10;;
4049;SDS011;2039;50.894;6.888;2022-11-20T07:43:50;85.33;;;17.77;;
4049;SDS011;2039;50.894;6.888;2022-11-20T07:46:16;91.10;;;19.27;;
4049;SDS011;2039;50.894;6.888;2022-11-20T07:48:42;89.57;;;18.70;;
4049;SDS011;2039;50.894;6.888;2022-11-20T07:51:07;91.07;;;19.67;;
4049;SDS011;2039;50.894;6.888;2022-11-20T07:53:33;91.17;;;19.50;;
4049;SDS011;2039;50.894;6.888;2022-11-20T07:55:59;89.90;;;19.27;;
4049;SDS011;2039;50.894;6.888;2022-11-20T07:58:26;91.07;;;19.15;;
4049;SDS011;2039;50.894;6.888;2022-11-20T08:00:54;94.50;;;22.25;;
4049;SDS011;2039;50.894;6.888;2022-11-20T08:03:20;88.82;;;18.42;;
4049;SDS011;2039;50.894;6.888;2022-11-20T08:05:46;90.27;;;20.90;;
4049;SDS011;2039;50.894;6.888;2022-11-20T08:08:11;92.53;;;20.30;;
4049;SDS011;2039;50.894;6.888;2022-11-20T08:10:37;94.40;;;20.10;;
4049;SDS011;2039;50.894;6.888;2022-11-20T08:13:03;86.53;;;17.87;;
4049;SDS011;2039;50.894;6.888;2022-11-20T08:15:51;92.97;;;19.67;;
4049;SDS011;2039;50.894;6.888;2022-11-20T08:18:16;94.25;;;20.85;;
4049;SDS011;2039;50.894;6.888;2022-11-20T08:20:42;92.55;;;19.02;;
4049;SDS011;2039;50.894;6.888;2022-11-20T08:23:08;94.68;;;21.95;;
4049;SDS011;2039;50.894;6.888;2022-11-20T08:25:35;90.83;;;19.10;;
4049;SDS011;2039;50.894;6.888;2022-11-20T08:28:03;91.85;;;18.98;;
4049;SDS011;2039;50.894;6.888;2022-11-20T08:30:32;91.85;;;19.50;;
4049;SDS011;2039;50.894;6.888;2022-11-20T08:33:02;95.95;;;20.50;;
4049;SDS011;2039;50.894;6.888;2022-11-20T08:35:32;88.93;;;18.23;;
4049;SDS011;2039;50.894;6.888;2022-11-20T08:37:59;89.85;;;18.35;;
4049;SDS011;2039;50.894;6.888;2022-11-20T08:40:25;97.82;;;20.13;;
4049;SDS011;2039;50.894;6.888;2022-11-20T08:42:51;91.50;;;18.80;;
4049;SDS011;2039;50.894;6.888;2022-11-20T08:45:18;89.37;;;18.57;;
4049;SDS011;2039;50.894;6.888;2022-11-20T08:47:44;88.65;;;17.23;;
4049;SDS011;2039;50.894;6.888;2022-11-20T08:50:11;88.47;;;18.55;;
4049;SDS011;2039;50.894;6.888;2022-11-20T08:52:39;93.47;;;19.65;;
4049;SDS011;2039;50.894;6.888;2022-11-20T08:55:05;90.10;;;20.33;;
4049;SDS011;2039;50.894;6.888;2022-11-20T08:57:32;89.35;;;18.75;;
4049;SDS011;2039;50.894;6.888;2022-11-20T08:59:58;90.03;;;18.77;;
4049;SDS011;2039;50.894;6.888;2022-11-20T09:02:24;92.07;;;19.77;;
4049;SDS011;2039;50.894;6.888;2022-11-20T09:04:50;91.53;;;19.17;;
4049;SDS011;2039;50.894;6.888;2022-11-20T09:07:15;91.10;;;20.00;;
4049;SDS011;2039;50.894;6.888;2022-11-20T09:09:44;89.70;;;20.37;;
4049;SDS011;2039;50.894;6.888;2022-11-20T09:12:10;86.88;;;17.30;;
4049;SDS011;2039;50.894;6.888;2022-11-20T09:14:35;88.87;;;18.87;;
4049;SDS011;2039;50.894;6.888;2022-11-20T09:17:01;92.77;;;18.97;;
4049;SDS011;2039;50.894;6.888;2022-11-20T09:19:27;92.32;;;18.42;;
4049;SDS011;2039;50.894;6.888;2022-11-20T09:21:53;94.73;;;20.10;;
4049;SDS011;2039;50.894;6.888;2022-11-20T09:24:19;91.57;;;19.50;;
4049;SDS011;2039;50.894;6.888;2022-11-20T09:26:46;93.35;;;19.45;;
4049;SDS011;2039;50.894;6.888;2022-11-20T09:29:11;90.17;;;19.70;;
4049;SDS011;2039;50.894;6.888;2022-11-20T09:31:37;88.63;;;17.90;;
4049;SDS011;2039;50.894;6.888;2022-11-20T09:34:03;89.73;;;19.10;;
4049;SDS011;2039;50.894;6.888;2022-11-20T09:36:28;93.20;;;19.00;;
4049;SDS011;2039;50.894;6.888;2022-11-20T09:38:57;91.70;;;19.40;;
4049;SDS011;2039;50.894;6.888;2022-11-20T09:54:57;88.63;;;18.70;;
4049;SDS011;2039;50.894;6.888;2022-11-20T09:57:29;92.70;;;19.50;;
4049;SDS011;2039;50.894;6.888;2022-11-20T10:00:02;86.20;;;17.35;;
4049;SDS011;2039;50.894;6.888;2022-11-20T10:03:33;95.25;;;19.65;;
4049;SDS011;2039;50.894;6.888;2022-11-20T10:05:35;93.88;;;20.80;;
4049;SDS011;2039;50.894;6.888;2022-11-20T10:11:33;92.22;;;20.17;;
4049;SDS011;2039;50.894;6.888;2022-11-20T10:17:02;94.97;;;21.23;;
4049;SDS011;2039;50.894;6.888;2022-11-20T10:25:38;95.28;;;18.65;;
4049;SDS011;2039;50.894;6.888;2022-11-20T10:28:11;89.78;;;19.95;;
4049;SDS011;2039;50.894;6.888;2022-11-20T10:30:51;89.72;;;18.90;;
4049;SDS011;2039;50.894;6.888;2022-11-20T10:33:33;92.10;;;21.30;;
4049;SDS011;2039;50.894;6.888;2022-11-20T10:39:05;88.22;;;17.25;;
4049;SDS011;2039;50.894;6.888;2022-11-20T10:41:40;94.30;;;23.33;;
4049;SDS011;2039;50.894;6.888;2022-11-20T10:44:12;91.82;;;19.65;;
4049;SDS011;2039;50.894;6.888;2022-11-20T10:47:16;91.35;;;19.27;;
4049;SDS011;2039;50.894;6.888;2022-11-20T10:49:44;89.30;;;19.17;;
4049;SDS011;2039;50.894;6.888;2022-11-20T11:00:10;91.85;;;18.77;;
4049;SDS011;2039;50.894;6.888;2022-11-20T11:02:43;86.55;;;16.70;;
4049;SDS011;2039;50.894;6.888;2022-11-20T11:07:45;93.03;;;20.75;;
4049;SDS011;2039;50.894;6.888;2022-11-20T11:13:00;94.95;;;20.10;;
4049;SDS011;2039;50.894;6.888;2022-11-20T11:15:35;95.17;;;22.43;;
4049;SDS011;2039;50.894;6.888;2022-11-20T11:18:03;90.43;;;20.02;;
4049;SDS011;2039;50.894;6.888;2022-11-20T11:20:29;90.13;;;18.77;;
4049;SDS011;2039;50.894;6.888;2022-11-20T11:22:57;92.15;;;19.20;;
4049;SDS011;2039;50.894;6.888;2022-11-20T11:25:25;90.85;;;19.17;;
4049;SDS011;2039;50.894;6.888;2022-11-20T11:28:00;91.30;;;18.92;;
4049;SDS011;2039;50.894;6.888;2022-11-20T11:30:44;91.57;;;20.85;;
4049;SDS011;2039;50.894;6.888;2022-11-20T11:33:23;88.53;;;20.50;;
4049;SDS011;2039;50.894;6.888;2022-11-20T11:35:54;92.93;;;20.30;;
4049;SDS011;2039;50.894;6.888;2022-11-20T11:38:35;89.30;;;19.40;;
4049;SDS011;2039;50.894;6.888;2022-11-20T11:41:04;87.85;;;18.98;;
4049;SDS011;2039;50.894;6.888;2022-11-20T11:43:33;89.07;;;20.27;;
4049;SDS011;2039;50.894;6.888;2022-11-20T11:46:27;93.05;;;18.45;;
4049;SDS011;2039;50.894;6.888;2022-11-20T11:48:57;93.30;;;19.88;;
4049;SDS011;2039;50.894;6.888;2022-11-20T11:51:33;89.07;;;20.30;;
4049;SDS011;2039;50.894;6.888;2022-11-20T11:54:23;89.93;;;18.77;;
4049;SDS011;2039;50.894;6.888;2022-11-20T11:57:14;89.07;;;17.58;;
4049;SDS011;2039;50.894;6.888;2022-11-20T11:59:44;87.70;;;17.35;;
4049;SDS011;2039;50.894;6.888;2022-11-20T12:04:56;89.57;;;19.30;;
4049;SDS011;2039;50.894;6.888;2022-11-20T12:07:42;85.90;;;17.38;;
4049;SDS011;2039;50.894;6.888;2022-11-20T12:15:55;91.40;;;19.92;;
4049;SDS011;2039;50.894;6.888;2022-11-20T12:18:21;90.38;;;20.23;;
4049;SDS011;2039;50.894;6.888;2022-11-20T12:23:36;87.05;;;19.02;;
4049;SDS011;2039;50.894;6.888;2022-11-20T12:26:15;92.57;;;19.33;;
4049;SDS011;2039;50.894;6.888;2022-11-20T12:35:00;86.68;;;18.25;;
4049;SDS011;2039;50.894;6.888;2022-11-20T12:40:51;91.75;;;18.38;;
4049;SDS011;2039;50.894;6.888;2022-11-20T12:43:26;86.75;;;18.75;;
4049;SDS011;2039;50.894;6.888;2022-11-20T12:46:18;87.95;;;19.98;;
4049;SDS011;2039;50.894;6.888;2022-11-20T13:05:58;87.32;;;17.67;;
4049;SDS011;2039;50.894;6.888;2022-11-20T13:08:37;92.13;;;20.08;;
4049;SDS011;2039;50.894;6.888;2022-11-20T13:11:24;92.55;;;17.60;;
4049;SDS011;2039;50.894;6.888;2022-11-20T13:14:04;86.63;;;18.30;;
4049;SDS011;2039;50.894;6.888;2022-11-20T13:16:57;92.88;;;19.65;;
4049;SDS011;2039;50.894;6.888;2022-11-20T13:19:27;95.20;;;19.38;;
4049;SDS011;2039;50.894;6.888;2022-11-20T13:21:54;88.85;;;19.35;;
4049;SDS011;2039;50.894;6.888;2022-11-20T13:29:40;89.22;;;18.77;;
4049;SDS011;2039;50.894;6.888;2022-11-20T13:32:14;88.10;;;18.90;;
4049;SDS011;2039;50.894;6.888;2022-11-20T13:37:48;85.05;;;18.90;;
4049;SDS011;2039;50.894;6.888;2022-11-20T13:48:24;90.40;;;20.17;;
4049;SDS011;2039;50.894;6.888;2022-11-20T13:53:44;90.45;;;19.80;;
4049;SDS011;2039;50.894;6.888;2022-11-20T14:01:50;90.78;;;18.13;;
4049;SDS011;2039;50.894;6.888;2022-11-20T14:04:18;91.33;;;18.40;;
4049;SDS011;2039;50.894;6.888;2022-11-20T14:06:51;96.53;;;19.80;;
4049;SDS011;2039;50.894;6.888;2022-11-20T14:09:27;90.70;;;20.38;;
4049;SDS011;2039;50.894;6.888;2022-11-20T14:11:55;88.82;;;18.02;;
4049;SDS011;2039;50.894;6.888;2022-11-20T14:14:22;93.63;;;18.70;;
4049;SDS011;2039;50.894;6.888;2022-11-20T14:16:53;91.13;;;19.13;;
4049;SDS011;2039;50.894;6.888;2022-11-20T14:19:44;89.60;;;18.70;;
4049;SDS011;2039;50.894;6.888;2022-11-20T14:22:18;90.25;;;18.60;;
4049;SDS011;2039;50.894;6.888;2022-11-20T14:25:01;91.90;;;19.90;;
4049;SDS011;2039;50.894;6.888;2022-11-20T14:27:32;94.05;;;21.60;;
4049;SDS011;2039;50.894;6.888;2022-11-20T14:30:02;91.65;;;20.33;;
4049;SDS011;2039;50.894;6.888;2022-11-20T14:32:28;83.43;;;16.85;;
4049;SDS011;2039;50.894;6.888;2022-11-20T14:34:55;88.60;;;19.35;;
4049;SDS011;2039;50.894;6.888;2022-11-20T14:37:27;90.13;;;18.65;;
4049;SDS011;2039;50.894;6.888;2022-11-20T14:40:01;85.38;;;19.15;;
4049;SDS011;2039;50.894;6.888;2022-11-20T14:42:28;91.57;;;18.60;;
4049;SDS011;2039;50.894;6.888;2022-11-20T14:44:59;91.47;;;18.98;;
4049;SDS011;2039;50.894;6.888;2022-11-20T14:47:32;87.70;;;19.45;;
4049;SDS011;2039;50.894;6.888;2022-11-20T14:49:58;89.53;;;20.27;;
4049;SDS011;2039;50.894;6.888;2022-11-20T14:52:26;90.50;;;20.65;;
4049;SDS011;2039;50.894;6.888;2022-11-20T14:54:56;93.03;;;20.17;;
4049;SDS011;2039;50.894;6.888;2022-11-20T14:57:29;96.53;;;22.45;;
4049;SDS011;2039;50.894;6.888;2022-11-20T15:02:44;89.45;;;20.48;;
4049;SDS011;2039;50.894;6.888;2022-11-20T15:05:11;91.18;;;20.67;;
4049;SDS011;2039;50.894;6.888;2022-11-20T15:07:40;86.47;;;19.30;;
4049;SDS011;2039;50.894;6.888;2022-11-20T15:10:19;89.65;;;23.48;;
4049;SDS011;2039;50.894;6.888;2022-11-20T15:12:55;88.07;;;22.73;;
4049;SDS011;2039;50.894;6.888;2022-11-20T15:15:36;94.03;;;24.02;;
4049;SDS011;2039;50.894;6.888;2022-11-20T15:18:19;89.32;;;24.55;;
4049;SDS011;2039;50.894;6.888;2022-11-20T15:20:55;88.75;;;22.92;;
4049;SDS011;2039;50.894;6.888;2022-11-20T15:23:22;96.30;;;26.48;;
4049;SDS011;2039;50.894;6.888;2022-11-20T15:25:48;125.07;;;32.57;;
4049;SDS011;2039;50.894;6.888;2022-11-20T15:28:20;139.45;;;37.63;;
4049;SDS011;2039;50.894;6.888;2022-11-20T15:30:52;96.57;;;23.17;;
4049;SDS011;2039;50.894;6.888;2022-11-20T15:33:26;92.40;;;20.80;;
4049;SDS011;2039;50.894;6.888;2022-11-20T15:36:01;84.65;;;19.13;;
4049;SDS011;2039;50.894;6.888;2022-11-20T15:38:26;90.25;;;21.00;;
4049;SDS011;2039;50.894;6.888;2022-11-20T15:40:52;86.80;;;21.63;;
4049;SDS011;2039;50.894;6.888;2022-11-20T15:43:17;89.20;;;21.60;;
4049;SDS011;2039;50.894;6.888;2022-11-20T15:48:17;92.68;;;21.73;;
4049;SDS011;2039;50.894;6.888;2022-11-20T15:50:54;84.97;;;20.15;;
4049;SDS011;2039;50.894;6.888;2022-11-20T15:53:26;86.45;;;19.98;;
4049;SDS011;2039;50.894;6.888;2022-11-20T15:55:52;81.80;;;17.27;;
4049;SDS011;2039;50.894;6.888;2022-11-20T15:58:21;80.82;;;18.13;;
4049;SDS011;2039;50.894;6.888;2022-11-20T16:00:52;84.30;;;18.70;;
4049;SDS011;2039;50.894;6.888;2022-11-20T16:03:18;78.72;;;16.92;;
4049;SDS011;2039;50.894;6.888;2022-11-20T16:05:47;83.95;;;19.05;;
4049;SDS011;2039;50.894;6.888;2022-11-20T16:08:13;81.82;;;18.77;;
4049;SDS011;2039;50.894;6.888;2022-11-20T16:10:39;85.40;;;17.27;;
4049;SDS011;2039;50.894;6.888;2022-11-20T16:13:11;83.47;;;18.27;;
4049;SDS011;2039;50.894;6.888;2022-11-20T16:16:02;84.68;;;17.65;;
4049;SDS011;2039;50.894;6.888;2022-11-20T16:18:30;77.85;;;18.42;;
4049;SDS011;2039;50.894;6.888;2022-11-20T16:20:57;81.32;;;18.98;;
4049;SDS011;2039;50.894;6.888;2022-11-20T16:23:23;82.77;;;19.00;;
4049;SDS011;2039;50.894;6.888;2022-11-20T16:25:49;87.10;;;19.27;;
4049;SDS011;2039;50.894;6.888;2022-11-20T16:28:15;74.82;;;16.38;;
4049;SDS011;2039;50.894;6.888;2022-11-20T16:30:41;74.50;;;17.80;;
4049;SDS011;2039;50.894;6.888;2022-11-20T16:33:25;76.60;;;17.97;;
4049;SDS011;2039;50.894;6.888;2022-11-20T16:35:53;81.05;;;17.65;;
4049;SDS011;2039;50.894;6.888;2022-11-20T16:38:19;73.47;;;17.27;;
4049;SDS011;2039;50.894;6.888;2022-11-20T16:43:20;73.60;;;14.07;;
4049;SDS011;2039;50.894;6.888;2022-11-20T16:45:45;76.40;;;16.57;;
4049;SDS011;2039;50.894;6.888;2022-11-20T16:48:12;74.97;;;15.80;;
4049;SDS011;2039;50.894;6.888;2022-11-20T16:50:49;73.97;;;15.68;;
4049;SDS011;2039;50.894;6.888;2022-11-20T16:53:17;75.45;;;14.10;;
4049;SDS011;2039;50.894;6.888;2022-11-20T16:55:44;70.82;;;13.20;;
4049;SDS011;2039;50.894;6.888;2022-11-20T16:58:10;70.45;;;12.48;;
4049;SDS011;2039;50.894;6.888;2022-11-20T17:00:37;72.80;;;13.85;;
4049;SDS011;2039;50.894;6.888;2022-11-20T17:03:04;71.68;;;12.52;;